Redcliff, Canada
Current Conditions -  °F | °C
As of 5:00 AM on Thursday 23 Oct 2014 (Local Time) from CYXH Reporting Station
Scattered Clouds Scattered Clouds  
Wind Chill: 54°   Ceiling: Unl
Heat Index: 54°   Visibility: 9mi
Dew Point: 37°   Wind: 12mph
Humidity: 54%   Direction: 200°SSW
Pressure: 29.64"   Gusts: 18mph
Location:  50.08°N, 110.79°W
Report Text: CYXH 231100Z AUTO 20010G16KT 9SM SCT140 SCT160 SCT180 12/03 A2964 RMK SLP037 DENSITY ALT 2800FT
Loading
Personal Weather Stations






























Interactive Weather Map New forecast layout! Learn more

10-Day Weather Forecast

Advertisements
Track Severe Weather on mobile